sensor_id;sensor_type;location;lat;lon;timestamp;temperature;humidity
45339;DHT22;31071;51.478;5.710;2023-08-07T00:01:25;13.40;99.90
45339;DHT22;31071;51.478;5.710;2023-08-07T00:03:50;13.40;99.90
45339;DHT22;31071;51.478;5.710;2023-08-07T00:06:16;14.00;99.90
45339;DHT22;31071;51.478;5.710;2023-08-07T00:08:41;13.40;99.90
45339;DHT22;31071;51.478;5.710;2023-08-07T00:11:10;13.30;99.90
45339;DHT22;31071;51.478;5.710;2023-08-07T00:13:36;13.40;99.90
45339;DHT22;31071;51.478;5.710;2023-08-07T00:16:02;13.40;99.90
45339;DHT22;31071;51.478;5.710;2023-08-07T00:18:28;13.30;99.90
45339;DHT22;31071;51.478;5.710;2023-08-07T00:20:54;13.30;99.90
45339;DHT22;31071;51.478;5.710;2023-08-07T00:23:20;13.30;99.90
45339;DHT22;31071;51.478;5.710;2023-08-07T00:25:46;13.30;99.90
45339;DHT22;31071;51.478;5.710;2023-08-07T00:28:11;13.20;99.90
45339;DHT22;31071;51.478;5.710;2023-08-07T00:30:37;15.50;99.90
45339;DHT22;31071;51.478;5.710;2023-08-07T00:33:02;13.20;99.90
45339;DHT22;31071;51.478;5.710;2023-08-07T00:35:28;13.60;99.90
45339;DHT22;31071;51.478;5.710;2023-08-07T00:37:54;13.20;99.90
45339;DHT22;31071;51.478;5.710;2023-08-07T00:40:19;13.20;99.90
45339;DHT22;31071;51.478;5.710;2023-08-07T00:42:45;13.30;99.90
45339;DHT22;31071;51.478;5.710;2023-08-07T00:45:10;14.40;99.90
45339;DHT22;31071;51.478;5.710;2023-08-07T00:47:36;13.20;99.90
45339;DHT22;31071;51.478;5.710;2023-08-07T00:50:04;11.90;99.90
45339;DHT22;31071;51.478;5.710;2023-08-07T00:52:30;13.20;99.90
45339;DHT22;31071;51.478;5.710;2023-08-07T00:54:55;14.50;99.90
45339;DHT22;31071;51.478;5.710;2023-08-07T00:57:21;13.30;99.90
45339;DHT22;31071;51.478;5.710;2023-08-07T00:59:48;13.30;99.90
45339;DHT22;31071;51.478;5.710;2023-08-07T01:02:14;13.40;99.90
45339;DHT22;31071;51.478;5.710;2023-08-07T01:04:40;13.30;99.90
45339;DHT22;31071;51.478;5.710;2023-08-07T01:07:06;13.40;99.90
45339;DHT22;31071;51.478;5.710;2023-08-07T01:09:32;13.40;99.90
45339;DHT22;31071;51.478;5.710;2023-08-07T01:14:52;13.80;99.90
45339;DHT22;31071;51.478;5.710;2023-08-07T01:17:22;13.40;99.90
45339;DHT22;31071;51.478;5.710;2023-08-07T01:19:50;13.40;99.90
45339;DHT22;31071;51.478;5.710;2023-08-07T01:22:18;13.30;99.90
45339;DHT22;31071;51.478;5.710;2023-08-07T01:24:47;13.30;99.90
45339;DHT22;31071;51.478;5.710;2023-08-07T01:27:35;13.30;99.90
45339;DHT22;31071;51.478;5.710;2023-08-07T01:30:20;13.30;99.90
45339;DHT22;31071;51.478;5.710;2023-08-07T01:35:23;13.30;99.90
45339;DHT22;31071;51.478;5.710;2023-08-07T01:37:52;13.30;99.90
45339;DHT22;31071;51.478;5.710;2023-08-07T01:40:20;13.30;99.90
45339;DHT22;31071;51.478;5.710;2023-08-07T01:42:52;14.60;99.90
45339;DHT22;31071;51.478;5.710;2023-08-07T01:45:25;13.30;99.90
45339;DHT22;31071;51.478;5.710;2023-08-07T01:47:52;13.30;99.90
45339;DHT22;31071;51.478;5.710;2023-08-07T01:50:19;13.00;99.90
45339;DHT22;31071;51.478;5.710;2023-08-07T01:52:45;13.40;99.90
45339;DHT22;31071;51.478;5.710;2023-08-07T01:55:15;13.40;99.90
45339;DHT22;31071;51.478;5.710;2023-08-07T01:57:41;13.40;99.90
45339;DHT22;31071;51.478;5.710;2023-08-07T02:00:07;13.40;99.90
45339;DHT22;31071;51.478;5.710;2023-08-07T02:02:34;13.30;99.90
45339;DHT22;31071;51.478;5.710;2023-08-07T02:04:59;13.30;99.90
45339;DHT22;31071;51.478;5.710;2023-08-07T02:07:25;13.30;99.90
45339;DHT22;31071;51.478;5.710;2023-08-07T02:09:51;13.30;99.90
45339;DHT22;31071;51.478;5.710;2023-08-07T02:12:28;13.30;99.90
45339;DHT22;31071;51.478;5.710;2023-08-07T02:15:11;13.40;99.90
45339;DHT22;31071;51.478;5.710;2023-08-07T02:17:39;13.40;99.90
45339;DHT22;31071;51.478;5.710;2023-08-07T02:20:08;13.40;99.90
45339;DHT22;31071;51.478;5.710;2023-08-07T02:22:37;13.40;99.90
45339;DHT22;31071;51.478;5.710;2023-08-07T02:25:12;13.40;99.90
45339;DHT22;31071;51.478;5.710;2023-08-07T02:27:38;13.40;99.90
45339;DHT22;31071;51.478;5.710;2023-08-07T02:30:07;13.30;99.90
45339;DHT22;31071;51.478;5.710;2023-08-07T02:32:36;13.40;99.90
45339;DHT22;31071;51.478;5.710;2023-08-07T02:35:08;13.30;99.90
45339;DHT22;31071;51.478;5.710;2023-08-07T02:37:33;13.30;99.90
45339;DHT22;31071;51.478;5.710;2023-08-07T02:39:59;13.30;99.90
45339;DHT22;31071;51.478;5.710;2023-08-07T02:42:25;13.30;99.90
45339;DHT22;31071;51.478;5.710;2023-08-07T02:44:50;13.30;99.90
45339;DHT22;31071;51.478;5.710;2023-08-07T02:47:16;13.20;99.90
45339;DHT22;31071;51.478;5.710;2023-08-07T02:49:41;13.20;99.90
45339;DHT22;31071;51.478;5.710;2023-08-07T02:52:07;13.20;99.90
45339;DHT22;31071;51.478;5.710;2023-08-07T02:55:18;13.20;99.90
45339;DHT22;31071;51.478;5.710;2023-08-07T02:57:46;13.30;99.90
45339;DHT22;31071;51.478;5.710;2023-08-07T03:00:12;13.50;99.90
45339;DHT22;31071;51.478;5.710;2023-08-07T03:02:38;13.30;99.90
45339;DHT22;31071;51.478;5.710;2023-08-07T03:05:03;13.10;99.90
45339;DHT22;31071;51.478;5.710;2023-08-07T03:07:29;13.30;99.90
45339;DHT22;31071;51.478;5.710;2023-08-07T03:09:55;13.30;99.90
45339;DHT22;31071;51.478;5.710;2023-08-07T03:12:21;13.30;99.90
45339;DHT22;31071;51.478;5.710;2023-08-07T03:14:47;13.30;99.90
45339;DHT22;31071;51.478;5.710;2023-08-07T03:17:13;13.20;99.90
45339;DHT22;31071;51.478;5.710;2023-08-07T03:19:42;13.10;99.90
45339;DHT22;31071;51.478;5.710;2023-08-07T03:22:07;13.20;99.90
45339;DHT22;31071;51.478;5.710;2023-08-07T03:24:33;13.00;99.90
45339;DHT22;31071;51.478;5.710;2023-08-07T03:26:59;13.50;99.90
45339;DHT22;31071;51.478;5.710;2023-08-07T03:29:24;13.00;99.90
45339;DHT22;31071;51.478;5.710;2023-08-07T03:31:50;13.00;99.90
45339;DHT22;31071;51.478;5.710;2023-08-07T03:34:16;13.40;99.90
45339;DHT22;31071;51.478;5.710;2023-08-07T03:36:41;14.60;99.90
45339;DHT22;31071;51.478;5.710;2023-08-07T03:39:07;13.00;99.90
45339;DHT22;31071;51.478;5.710;2023-08-07T03:41:42;13.10;99.90
45339;DHT22;31071;51.478;5.710;2023-08-07T03:44:29;13.10;99.90
45339;DHT22;31071;51.478;5.710;2023-08-07T03:47:07;13.10;99.90
45339;DHT22;31071;51.478;5.710;2023-08-07T03:49:42;13.00;99.90
45339;DHT22;31071;51.478;5.710;2023-08-07T03:52:20;13.10;99.90
45339;DHT22;31071;51.478;5.710;2023-08-07T03:54:52;13.10;99.90
45339;DHT22;31071;51.478;5.710;2023-08-07T03:57:41;13.20;99.90
45339;DHT22;31071;51.478;5.710;2023-08-07T04:00:27;13.10;99.90
45339;DHT22;31071;51.478;5.710;2023-08-07T04:02:58;13.20;99.90
45339;DHT22;31071;51.478;5.710;2023-08-07T04:05:23;13.20;99.90
45339;DHT22;31071;51.478;5.710;2023-08-07T04:07:49;13.20;99.90
45339;DHT22;31071;51.478;5.710;2023-08-07T04:10:14;13.20;99.90
45339;DHT22;31071;51.478;5.710;2023-08-07T04:12:40;13.20;99.90
45339;DHT22;31071;51.478;5.710;2023-08-07T04:15:06;12.20;99.90
45339;DHT22;31071;51.478;5.710;2023-08-07T04:17:32;13.30;99.90
45339;DHT22;31071;51.478;5.710;2023-08-07T04:19:58;13.30;99.90
45339;DHT22;31071;51.478;5.710;2023-08-07T04:22:24;13.30;99.90
45339;DHT22;31071;51.478;5.710;2023-08-07T04:24:50;13.40;99.90
45339;DHT22;31071;51.478;5.710;2023-08-07T04:27:15;13.30;99.90
45339;DHT22;31071;51.478;5.710;2023-08-07T04:29:41;13.30;99.90
45339;DHT22;31071;51.478;5.710;2023-08-07T04:32:07;13.40;99.90
45339;DHT22;31071;51.478;5.710;2023-08-07T04:34:33;13.40;99.90
45339;DHT22;31071;51.478;5.710;2023-08-07T04:36:58;13.40;99.90
45339;DHT22;31071;51.478;5.710;2023-08-07T04:39:24;12.80;99.90
45339;DHT22;31071;51.478;5.710;2023-08-07T04:41:49;13.50;99.90
45339;DHT22;31071;51.478;5.710;2023-08-07T04:44:16;13.50;99.90
45339;DHT22;31071;51.478;5.710;2023-08-07T04:46:42;13.50;99.90
45339;DHT22;31071;51.478;5.710;2023-08-07T04:49:07;13.60;99.90
45339;DHT22;31071;51.478;5.710;2023-08-07T04:51:33;14.40;99.90
45339;DHT22;31071;51.478;5.710;2023-08-07T04:53:59;16.20;99.90
45339;DHT22;31071;51.478;5.710;2023-08-07T04:56:24;13.60;99.90
45339;DHT22;31071;51.478;5.710;2023-08-07T04:58:50;13.60;99.90
45339;DHT22;31071;51.478;5.710;2023-08-07T05:01:16;13.60;99.90
45339;DHT22;31071;51.478;5.710;2023-08-07T05:03:42;13.60;99.90
45339;DHT22;31071;51.478;5.710;2023-08-07T05:06:07;13.60;99.90
45339;DHT22;31071;51.478;5.710;2023-08-07T05:08:33;13.50;99.90
45339;DHT22;31071;51.478;5.710;2023-08-07T05:10:59;13.70;99.90
45339;DHT22;31071;51.478;5.710;2023-08-07T05:13:25;13.70;99.90
45339;DHT22;31071;51.478;5.710;2023-08-07T05:15:50;14.00;99.90
45339;DHT22;31071;51.478;5.710;2023-08-07T05:18:16;13.70;99.90
45339;DHT22;31071;51.478;5.710;2023-08-07T05:20:42;13.70;99.90
45339;DHT22;31071;51.478;5.710;2023-08-07T05:23:08;13.70;99.90
45339;DHT22;31071;51.478;5.710;2023-08-07T05:25:34;13.60;99.90
45339;DHT22;31071;51.478;5.710;2023-08-07T05:28:00;13.70;99.90
45339;DHT22;31071;51.478;5.710;2023-08-07T05:30:46;13.70;99.90
45339;DHT22;31071;51.478;5.710;2023-08-07T05:33:12;13.70;99.90
45339;DHT22;31071;51.478;5.710;2023-08-07T05:35:49;13.70;99.90
45339;DHT22;31071;51.478;5.710;2023-08-07T05:38:18;13.70;99.90
45339;DHT22;31071;51.478;5.710;2023-08-07T05:40:43;13.70;99.90
45339;DHT22;31071;51.478;5.710;2023-08-07T05:43:09;14.90;99.90
45339;DHT22;31071;51.478;5.710;2023-08-07T05:45:36;13.70;99.90
45339;DHT22;31071;51.478;5.710;2023-08-07T05:48:02;13.80;99.90
45339;DHT22;31071;51.478;5.710;2023-08-07T05:50:28;13.80;99.90
45339;DHT22;31071;51.478;5.710;2023-08-07T05:52:53;13.90;99.90
45339;DHT22;31071;51.478;5.710;2023-08-07T05:55:19;13.80;99.90
45339;DHT22;31071;51.478;5.710;2023-08-07T05:57:45;13.80;99.90
45339;DHT22;31071;51.478;5.710;2023-08-07T06:00:11;13.80;99.90
45339;DHT22;31071;51.478;5.710;2023-08-07T06:02:42;13.80;99.90
45339;DHT22;31071;51.478;5.710;2023-08-07T06:05:14;13.60;99.90
45339;DHT22;31071;51.478;5.710;2023-08-07T06:07:41;13.70;99.90
45339;DHT22;31071;51.478;5.710;2023-08-07T06:10:07;13.70;99.90
45339;DHT22;31071;51.478;5.710;2023-08-07T06:12:33;13.70;99.90
45339;DHT22;31071;51.478;5.710;2023-08-07T06:14:59;13.70;99.90
45339;DHT22;31071;51.478;5.710;2023-08-07T06:17:25;13.70;99.90
45339;DHT22;31071;51.478;5.710;2023-08-07T06:19:51;14.50;99.90
45339;DHT22;31071;51.478;5.710;2023-08-07T06:22:17;14.80;99.90
45339;DHT22;31071;51.478;5.710;2023-08-07T06:24:42;13.70;99.90
45339;DHT22;31071;51.478;5.710;2023-08-07T06:27:08;13.70;99.90
45339;DHT22;31071;51.478;5.710;2023-08-07T06:29:34;13.80;99.90
45339;DHT22;31071;51.478;5.710;2023-08-07T06:31:59;13.90;99.90
45339;DHT22;31071;51.478;5.710;2023-08-07T06:34:25;13.90;99.90
45339;DHT22;31071;51.478;5.710;2023-08-07T06:36:54;13.90;99.90
45339;DHT22;31071;51.478;5.710;2023-08-07T06:39:19;13.90;99.90
45339;DHT22;31071;51.478;5.710;2023-08-07T06:41:45;13.90;99.90
45339;DHT22;31071;51.478;5.710;2023-08-07T06:44:11;14.00;99.90
45339;DHT22;31071;51.478;5.710;2023-08-07T06:46:37;14.10;99.90
45339;DHT22;31071;51.478;5.710;2023-08-07T06:49:02;14.10;99.90
45339;DHT22;31071;51.478;5.710;2023-08-07T06:51:28;14.20;99.90
45339;DHT22;31071;51.478;5.710;2023-08-07T06:53:54;14.10;99.90
45339;DHT22;31071;51.478;5.710;2023-08-07T06:56:19;14.20;99.90
45339;DHT22;31071;51.478;5.710;2023-08-07T06:58:46;14.20;99.90
45339;DHT22;31071;51.478;5.710;2023-08-07T07:01:11;14.30;99.90
45339;DHT22;31071;51.478;5.710;2023-08-07T07:04:04;14.30;99.90
45339;DHT22;31071;51.478;5.710;2023-08-07T07:06:29;14.40;99.90
45339;DHT22;31071;51.478;5.710;2023-08-07T07:08:55;14.40;99.90
45339;DHT22;31071;51.478;5.710;2023-08-07T07:11:22;14.40;99.90
45339;DHT22;31071;51.478;5.710;2023-08-07T07:13:49;16.00;99.90
45339;DHT22;31071;51.478;5.710;2023-08-07T07:16:18;14.50;99.90
45339;DHT22;31071;51.478;5.710;2023-08-07T07:18:50;14.50;99.90
45339;DHT22;31071;51.478;5.710;2023-08-07T07:21:16;14.70;99.90
45339;DHT22;31071;51.478;5.710;2023-08-07T07:23:42;17.10;99.90
45339;DHT22;31071;51.478;5.710;2023-08-07T07:26:08;16.60;99.90
45339;DHT22;31071;51.478;5.710;2023-08-07T07:28:34;15.00;99.90
45339;DHT22;31071;51.478;5.710;2023-08-07T07:31:05;15.00;99.90
45339;DHT22;31071;51.478;5.710;2023-08-07T07:33:58;15.10;99.90
45339;DHT22;31071;51.478;5.710;2023-08-07T07:36:42;15.00;99.90
45339;DHT22;31071;51.478;5.710;2023-08-07T07:39:11;14.80;99.90
45339;DHT22;31071;51.478;5.710;2023-08-07T07:41:43;14.50;99.90
45339;DHT22;31071;51.478;5.710;2023-08-07T07:44:08;14.40;99.90
45339;DHT22;31071;51.478;5.710;2023-08-07T07:46:34;14.40;99.90
45339;DHT22;31071;51.478;5.710;2023-08-07T07:49:00;14.40;99.90
45339;DHT22;31071;51.478;5.710;2023-08-07T07:51:26;14.40;99.90
45339;DHT22;31071;51.478;5.710;2023-08-07T07:53:54;14.10;99.90
45339;DHT22;31071;51.478;5.710;2023-08-07T07:56:20;15.50;99.90
45339;DHT22;31071;51.478;5.710;2023-08-07T07:58:46;14.00;99.90
45339;DHT22;31071;51.478;5.710;2023-08-07T08:01:14;14.10;99.90
45339;DHT22;31071;51.478;5.710;2023-08-07T08:03:43;14.20;99.90
45339;DHT22;31071;51.478;5.710;2023-08-07T08:06:11;14.20;99.90
45339;DHT22;31071;51.478;5.710;2023-08-07T08:08:40;13.10;99.90
45339;DHT22;31071;51.478;5.710;2023-08-07T08:11:16;13.90;99.90
45339;DHT22;31071;51.478;5.710;2023-08-07T08:13:48;13.80;99.90
45339;DHT22;31071;51.478;5.710;2023-08-07T08:16:14;13.80;99.90
45339;DHT22;31071;51.478;5.710;2023-08-07T08:18:40;13.80;99.90
45339;DHT22;31071;51.478;5.710;2023-08-07T08:21:29;13.80;99.90
45339;DHT22;31071;51.478;5.710;2023-08-07T08:27:13;14.20;99.90
45339;DHT22;31071;51.478;5.710;2023-08-07T08:29:57;14.30;99.90
45339;DHT22;31071;51.478;5.710;2023-08-07T08:32:50;14.50;99.90
45339;DHT22;31071;51.478;5.710;2023-08-07T08:35:21;14.60;99.90
45339;DHT22;31071;51.478;5.710;2023-08-07T08:37:53;14.80;99.90
45339;DHT22;31071;51.478;5.710;2023-08-07T08:40:18;15.00;99.90
45339;DHT22;31071;51.478;5.710;2023-08-07T08:42:45;15.30;99.90
45339;DHT22;31071;51.478;5.710;2023-08-07T08:45:13;15.50;99.90
45339;DHT22;31071;51.478;5.710;2023-08-07T08:47:43;15.80;99.90
45339;DHT22;31071;51.478;5.710;2023-08-07T08:50:13;16.10;99.90
45339;DHT22;31071;51.478;5.710;2023-08-07T08:52:44;16.80;99.90
45339;DHT22;31071;51.478;5.710;2023-08-07T08:55:14;16.30;99.90
45339;DHT22;31071;51.478;5.710;2023-08-07T08:57:43;16.50;99.90
45339;DHT22;31071;51.478;5.710;2023-08-07T09:00:15;16.60;99.90
45339;DHT22;31071;51.478;5.710;2023-08-07T09:02:50;16.80;99.90
45339;DHT22;31071;51.478;5.710;2023-08-07T09:05:17;16.60;99.90
45339;DHT22;31071;51.478;5.710;2023-08-07T09:07:43;17.20;99.90
45339;DHT22;31071;51.478;5.710;2023-08-07T09:10:12;18.40;99.90
45339;DHT22;31071;51.478;5.710;2023-08-07T09:12:57;18.60;99.90
45339;DHT22;31071;51.478;5.710;2023-08-07T09:15:26;17.20;99.90
45339;DHT22;31071;51.478;5.710;2023-08-07T09:17:57;17.00;99.90
45339;DHT22;31071;51.478;5.710;2023-08-07T09:20:30;16.70;99.90
45339;DHT22;31071;51.478;5.710;2023-08-07T09:22:56;16.60;99.90
45339;DHT22;31071;51.478;5.710;2023-08-07T09:25:32;16.60;99.90
45339;DHT22;31071;51.478;5.710;2023-08-07T09:27:58;16.90;99.90
45339;DHT22;31071;51.478;5.710;2023-08-07T09:30:28;17.20;99.90
45339;DHT22;31071;51.478;5.710;2023-08-07T09:32:56;17.50;99.90
45339;DHT22;31071;51.478;5.710;2023-08-07T09:35:21;17.90;99.90
45339;DHT22;31071;51.478;5.710;2023-08-07T09:37:48;18.10;99.90
45339;DHT22;31071;51.478;5.710;2023-08-07T09:40:14;20.10;99.90
45339;DHT22;31071;51.478;5.710;2023-08-07T09:42:43;17.90;99.90
45339;DHT22;31071;51.478;5.710;2023-08-07T09:45:25;18.00;99.90
45339;DHT22;31071;51.478;5.710;2023-08-07T09:50:24;18.10;99.90
45339;DHT22;31071;51.478;5.710;2023-08-07T09:52:51;18.20;99.90
45339;DHT22;31071;51.478;5.710;2023-08-07T09:55:16;18.40;99.90
45339;DHT22;31071;51.478;5.710;2023-08-07T09:57:43;18.50;99.90
45339;DHT22;31071;51.478;5.710;2023-08-07T10:00:10;18.60;99.80
45339;DHT22;31071;51.478;5.710;2023-08-07T10:02:41;19.00;99.20
45339;DHT22;31071;51.478;5.710;2023-08-07T10:05:10;18.90;98.80
45339;DHT22;31071;51.478;5.710;2023-08-07T10:07:38;19.60;98.70
45339;DHT22;31071;51.478;5.710;2023-08-07T10:10:05;20.30;98.20
45339;DHT22;31071;51.478;5.710;2023-08-07T10:12:32;19.00;98.50
45339;DHT22;31071;51.478;5.710;2023-08-07T10:15:02;19.20;98.00
45339;DHT22;31071;51.478;5.710;2023-08-07T10:17:28;19.30;98.00
45339;DHT22;31071;51.478;5.710;2023-08-07T10:19:55;20.10;96.70
45339;DHT22;31071;51.478;5.710;2023-08-07T10:22:25;21.40;95.80
45339;DHT22;31071;51.478;5.710;2023-08-07T10:25:03;20.50;95.40
45339;DHT22;31071;51.478;5.710;2023-08-07T10:27:34;21.80;96.20
45339;DHT22;31071;51.478;5.710;2023-08-07T10:30:02;22.10;95.50
45339;DHT22;31071;51.478;5.710;2023-08-07T10:32:30;20.00;93.90
45339;DHT22;31071;51.478;5.710;2023-08-07T10:34:56;20.30;95.00
45339;DHT22;31071;51.478;5.710;2023-08-07T10:37:44;21.60;96.10
45339;DHT22;31071;51.478;5.710;2023-08-07T10:40:16;19.80;94.80
45339;DHT22;31071;51.478;5.710;2023-08-07T10:45:21;20.00;95.50
45339;DHT22;31071;51.478;5.710;2023-08-07T10:48:10;20.80;94.10
45339;DHT22;31071;51.478;5.710;2023-08-07T10:50:49;20.80;91.70
45339;DHT22;31071;51.478;5.710;2023-08-07T10:53:32;20.70;91.00
45339;DHT22;31071;51.478;5.710;2023-08-07T10:56:11;20.50;91.90
45339;DHT22;31071;51.478;5.710;2023-08-07T10:58:40;20.30;90.70
45339;DHT22;31071;51.478;5.710;2023-08-07T11:04:07;20.50;90.10
45339;DHT22;31071;51.478;5.710;2023-08-07T11:06:34;20.60;90.20
45339;DHT22;31071;51.478;5.710;2023-08-07T11:09:03;20.90;89.30
45339;DHT22;31071;51.478;5.710;2023-08-07T11:14:19;20.70;86.90
45339;DHT22;31071;51.478;5.710;2023-08-07T11:16:46;22.20;86.50
45339;DHT22;31071;51.478;5.710;2023-08-07T11:19:17;21.80;84.70
45339;DHT22;31071;51.478;5.710;2023-08-07T11:21:47;24.20;84.40
45339;DHT22;31071;51.478;5.710;2023-08-07T11:24:16;23.70;81.10
45339;DHT22;31071;51.478;5.710;2023-08-07T11:26:52;25.10;79.90
45339;DHT22;31071;51.478;5.710;2023-08-07T11:29:52;23.50;77.90
45339;DHT22;31071;51.478;5.710;2023-08-07T11:32:28;24.00;76.60
45339;DHT22;31071;51.478;5.710;2023-08-07T11:35:03;23.70;77.30
45339;DHT22;31071;51.478;5.710;2023-08-07T11:44:02;26.20;78.60
45339;DHT22;31071;51.478;5.710;2023-08-07T11:46:29;24.90;71.10
45339;DHT22;31071;51.478;5.710;2023-08-07T11:49:05;24.60;70.80
45339;DHT22;31071;51.478;5.710;2023-08-07T11:51:35;24.00;70.00
45339;DHT22;31071;51.478;5.710;2023-08-07T11:54:33;25.60;72.40
45339;DHT22;31071;51.478;5.710;2023-08-07T11:57:22;24.80;70.60
45339;DHT22;31071;51.478;5.710;2023-08-07T11:59:52;23.00;68.60
45339;DHT22;31071;51.478;5.710;2023-08-07T12:02:36;25.90;69.30
45339;DHT22;31071;51.478;5.710;2023-08-07T12:05:39;26.60;72.30
45339;DHT22;31071;51.478;5.710;2023-08-07T12:11:55;25.60;66.40
45339;DHT22;31071;51.478;5.710;2023-08-07T12:17:47;26.20;68.10
45339;DHT22;31071;51.478;5.710;2023-08-07T12:20:46;24.70;67.40
45339;DHT22;31071;51.478;5.710;2023-08-07T12:23:35;23.90;66.00
45339;DHT22;31071;51.478;5.710;2023-08-07T12:26:50;25.50;70.00
45339;DHT22;31071;51.478;5.710;2023-08-07T12:29:19;26.70;69.80
45339;DHT22;31071;51.478;5.710;2023-08-07T12:31:47;24.40;65.90
45339;DHT22;31071;51.478;5.710;2023-08-07T12:34:21;22.70;70.80
45339;DHT22;31071;51.478;5.710;2023-08-07T12:36:48;21.30;71.50
45339;DHT22;31071;51.478;5.710;2023-08-07T12:39:15;23.70;74.50
45339;DHT22;31071;51.478;5.710;2023-08-07T12:41:44;21.60;74.70
45339;DHT22;31071;51.478;5.710;2023-08-07T12:44:09;23.50;73.60
45339;DHT22;31071;51.478;5.710;2023-08-07T12:46:35;25.10;70.70
45339;DHT22;31071;51.478;5.710;2023-08-07T12:49:26;25.10;68.60
45339;DHT22;31071;51.478;5.710;2023-08-07T12:52:59;26.80;69.50
45339;DHT22;31071;51.478;5.710;2023-08-07T12:55:30;27.60;69.70
45339;DHT22;31071;51.478;5.710;2023-08-07T12:57:59;26.10;68.10
45339;DHT22;31071;51.478;5.710;2023-08-07T13:00:48;24.10;68.50
45339;DHT22;31071;51.478;5.710;2023-08-07T13:03:13;24.40;73.70
45339;DHT22;31071;51.478;5.710;2023-08-07T13:05:39;23.50;76.20
45339;DHT22;31071;51.478;5.710;2023-08-07T13:08:25;22.60;80.60
45339;DHT22;31071;51.478;5.710;2023-08-07T13:11:00;21.50;81.70
45339;DHT22;31071;51.478;5.710;2023-08-07T13:13:26;20.10;82.60
45339;DHT22;31071;51.478;5.710;2023-08-07T13:16:16;20.40;84.40
45339;DHT22;31071;51.478;5.710;2023-08-07T13:18:44;21.70;82.80
45339;DHT22;31071;51.478;5.710;2023-08-07T13:21:17;22.70;85.00
45339;DHT22;31071;51.478;5.710;2023-08-07T13:23:43;21.40;81.30
45339;DHT22;31071;51.478;5.710;2023-08-07T13:29:30;23.10;81.70
45339;DHT22;31071;51.478;5.710;2023-08-07T13:31:56;25.80;80.20
45339;DHT22;31071;51.478;5.710;2023-08-07T13:34:30;24.80;76.20
45339;DHT22;31071;51.478;5.710;2023-08-07T13:36:58;24.30;77.90
45339;DHT22;31071;51.478;5.710;2023-08-07T13:39:38;25.00;78.10
45339;DHT22;31071;51.478;5.710;2023-08-07T13:42:07;25.30;75.70
45339;DHT22;31071;51.478;5.710;2023-08-07T13:45:25;24.20;76.40
45339;DHT22;31071;51.478;5.710;2023-08-07T13:48:26;24.30;77.90
45339;DHT22;31071;51.478;5.710;2023-08-07T13:51:37;22.40;80.80
45339;DHT22;31071;51.478;5.710;2023-08-07T13:54:14;21.00;86.20
45339;DHT22;31071;51.478;5.710;2023-08-07T13:57:00;20.90;90.10
45339;DHT22;31071;51.478;5.710;2023-08-07T14:00:00;22.00;90.90
45339;DHT22;31071;51.478;5.710;2023-08-07T14:11:54;19.10;96.70
45339;DHT22;31071;51.478;5.710;2023-08-07T14:14:24;19.60;99.30
45339;DHT22;31071;51.478;5.710;2023-08-07T14:16:52;20.60;94.70
45339;DHT22;31071;51.478;5.710;2023-08-07T14:19:24;22.40;94.50
45339;DHT22;31071;51.478;5.710;2023-08-07T14:29:11;19.80;94.70
45339;DHT22;31071;51.478;5.710;2023-08-07T14:31:57;19.80;95.30
45339;DHT22;31071;51.478;5.710;2023-08-07T14:34:23;21.20;94.80
45339;DHT22;31071;51.478;5.710;2023-08-07T14:36:49;20.20;94.90
45339;DHT22;31071;51.478;5.710;2023-08-07T14:39:38;19.90;94.50
45339;DHT22;31071;51.478;5.710;2023-08-07T14:42:31;21.70;95.50
45339;DHT22;31071;51.478;5.710;2023-08-07T14:45:31;19.00;94.20
45339;DHT22;31071;51.478;5.710;2023-08-07T14:59:27;20.70;92.90
45339;DHT22;31071;51.478;5.710;2023-08-07T15:02:09;20.90;93.20
45339;DHT22;31071;51.478;5.710;2023-08-07T15:04:53;21.50;93.90
45339;DHT22;31071;51.478;5.710;2023-08-07T15:14:18;21.00;92.60
45339;DHT22;31071;51.478;5.710;2023-08-07T15:16:44;20.20;92.80
45339;DHT22;31071;51.478;5.710;2023-08-07T15:32:19;20.00;94.10
45339;DHT22;31071;51.478;5.710;2023-08-07T15:34:47;20.10;94.40
45339;DHT22;31071;51.478;5.710;2023-08-07T15:37:13;21.70;95.50
45339;DHT22;31071;51.478;5.710;2023-08-07T15:42:57;21.50;96.00
45339;DHT22;31071;51.478;5.710;2023-08-07T15:48:39;18.70;95.70
45339;DHT22;31071;51.478;5.710;2023-08-07T16:07:36;21.20;92.10
45339;DHT22;31071;51.478;5.710;2023-08-07T16:10:02;21.30;93.70
45339;DHT22;31071;51.478;5.710;2023-08-07T16:12:46;20.90;94.40
45339;DHT22;31071;51.478;5.710;2023-08-07T16:15:23;19.20;93.00
45339;DHT22;31071;51.478;5.710;2023-08-07T16:17:49;20.50;92.50
45339;DHT22;31071;51.478;5.710;2023-08-07T16:20:17;21.20;92.40
45339;DHT22;31071;51.478;5.710;2023-08-07T16:23:10;22.40;92.50
45339;DHT22;31071;51.478;5.710;2023-08-07T16:25:39;21.10;92.80
45339;DHT22;31071;51.478;5.710;2023-08-07T16:28:05;20.20;93.40
45339;DHT22;31071;51.478;5.710;2023-08-07T16:30:40;20.00;93.00
45339;DHT22;31071;51.478;5.710;2023-08-07T16:33:42;22.10;93.70
45339;DHT22;31071;51.478;5.710;2023-08-07T16:36:08;20.70;92.80
45339;DHT22;31071;51.478;5.710;2023-08-07T16:38:34;21.30;92.60
45339;DHT22;31071;51.478;5.710;2023-08-07T16:40:59;21.90;91.50
45339;DHT22;31071;51.478;5.710;2023-08-07T16:43:25;20.70;91.00
45339;DHT22;31071;51.478;5.710;2023-08-07T16:45:50;20.70;90.90
45339;DHT22;31071;51.478;5.710;2023-08-07T16:48:16;20.60;91.60
45339;DHT22;31071;51.478;5.710;2023-08-07T16:50:41;20.50;91.60
45339;DHT22;31071;51.478;5.710;2023-08-07T16:53:07;20.30;92.10
45339;DHT22;31071;51.478;5.710;2023-08-07T16:55:34;20.20;92.30
45339;DHT22;31071;51.478;5.710;2023-08-07T16:57:59;20.30;92.50
45339;DHT22;31071;51.478;5.710;2023-08-07T17:00:25;22.10;93.50
45339;DHT22;31071;51.478;5.710;2023-08-07T17:02:59;19.70;93.30
45339;DHT22;31071;51.478;5.710;2023-08-07T17:05:25;20.60;94.00
45339;DHT22;31071;51.478;5.710;2023-08-07T17:07:52;19.60;94.00
45339;DHT22;31071;51.478;5.710;2023-08-07T17:10:20;21.90;94.70
45339;DHT22;31071;51.478;5.710;2023-08-07T17:12:48;20.60;94.50
45339;DHT22;31071;51.478;5.710;2023-08-07T17:15:13;19.70;93.90
45339;DHT22;31071;51.478;5.710;2023-08-07T17:17:39;22.00;94.70
45339;DHT22;31071;51.478;5.710;2023-08-07T17:20:05;21.00;95.10
45339;DHT22;31071;51.478;5.710;2023-08-07T17:22:31;19.70;94.30
45339;DHT22;31071;51.478;5.710;2023-08-07T17:24:57;19.70;95.20
45339;DHT22;31071;51.478;5.710;2023-08-07T17:27:23;20.50;96.00
45339;DHT22;31071;51.478;5.710;2023-08-07T17:29:49;21.30;96.20
45339;DHT22;31071;51.478;5.710;2023-08-07T17:32:16;19.60;95.10
45339;DHT22;31071;51.478;5.710;2023-08-07T17:34:41;20.30;96.00
45339;DHT22;31071;51.478;5.710;2023-08-07T17:37:07;21.20;95.70
45339;DHT22;31071;51.478;5.710;2023-08-07T17:39:34;20.60;95.30